Udo Maru — JM6522 — position and weather

sailwx.info

Track history (hours):
 
Tides and Currents Weather Stations Pressure Air Temp Water Temp Dewpoint Dewpoint Depression Visibility Wind Speed Wind Dir Waves Ship Positions

Udo Maru

Last reported at 2016-Aug-24 09:33 UTC. Time now 2016-Aug-24 10:19 UTC.
Position N 35°27' E 139°49'.

Length 87 m; draft 4.9 m.

Type: Cargo ship. MMSI: 431600499.

Date/timePositionNaut miles runAvg speedWind from/ knotsBaromVisibWave heightAir tempDewpointWater temp
2016-Aug-24 09:33N 35°27' E 139°49'1010.2
2016-Aug-24 08:33N 35°17' E 139°46'1110.6
2016-Aug-24 07:32N 35°06' E 139°44'242 9.3
2016-Aug-23 05:33N 34°03' E 135°00'1111.4
2016-Aug-23 04:33N 34°14' E 134°59'1010.2
2016-Aug-23 03:33N 34°24' E 135°00'1010.0
2016-Aug-23 02:33N 34°34' E 135°03'7 6.2
2016-Aug-23 01:26N 34°35' E 134°54'  
2016-Aug-19 09:08N 34°35' E 134°51'912.0
2016-Aug-19 08:23N 34°37' E 135°02'910.6
2016-Aug-19 07:33N 34°37' E 135°12'8 8.3
2016-Aug-19 06:33N 34°39' E 135°22'4 4.2
2016-Aug-19 05:33N 34°40' E 135°27'0 0.0
2016-Aug-19 04:29N 34°40' E 135°27'5 5.1
2016-Aug-19 03:33N 34°36' E 135°25'2 1.6
2016-Aug-19 02:33N 34°35' E 135°27'0 0.0
2016-Aug-19 01:32N 34°35' E 135°27'0 0.0
2016-Aug-19 00:33N 34°35' E 135°27'0 0.0
2016-Aug-18 23:33N 34°35' E 135°27'2 2.3
2016-Aug-18 22:33N 34°36' E 135°24'1 1.0
2016-Aug-18 21:33N 34°36' E 135°23'0 0.0
2016-Aug-18 20:33N 34°36' E 135°23'0 0.0
2016-Aug-18 19:33N 34°36' E 135°23'0 0.0
2016-Aug-18 18:33N 34°36' E 135°23'0 0.0
2016-Aug-18 17:33N 34°36' E 135°23'0 0.0
2016-Aug-18 16:33N 34°36' E 135°23'0 0.0
2016-Aug-18 15:33N 34°36' E 135°23'0 0.0
2016-Aug-18 14:33N 34°36' E 135°23'0 0.0
2016-Aug-18 13:33N 34°36' E 135°23'0 0.0
2016-Aug-18 12:33N 34°36' E 135°23'0 0.0
2016-Aug-18 11:33N 34°36' E 135°23'0 0.0
2016-Aug-18 10:33N 34°36' E 135°23'0 0.0
2016-Aug-18 09:33N 34°36' E 135°23'9 9.1
2016-Aug-18 08:33N 34°35' E 135°12'1211.6
2016-Aug-18 07:31N 34°36' E 134°58'  
2016-Aug-14 21:06N 34°37' E 134°54'611.6
2016-Aug-14 20:33N 34°37' E 135°02'10 9.6
2016-Aug-14 19:33N 34°28' E 135°03'1211.4
2016-Aug-14 18:30N 34°16' E 134°59'7 7.0
2016-Aug-14 17:33N 34°15' E 135°07'0 0.0
2016-Aug-14 16:34N 34°15' E 135°07'0 0.0
2016-Aug-14 15:33N 34°15' E 135°07'0 0.0
2016-Aug-14 14:34N 34°15' E 135°07'0 0.0
2016-Aug-14 13:33N 34°15' E 135°07'0 0.0
2016-Aug-14 12:33N 34°15' E 135°07'0 0.0
2016-Aug-14 11:34N 34°15' E 135°07'0 0.0
2016-Aug-14 10:33N 34°15' E 135°07'0 0.0
2016-Aug-14 09:34N 34°15' E 135°07'  
Track history (hours):
 
Tides and Currents Weather Stations Pressure Air Temp Water Temp Dewpoint Dewpoint Depression Visibility Wind Speed Wind Dir Waves Ship Positions

Udo Maru

Last reported at 2016-Aug-24 09:33 UTC. Time now 2016-Aug-24 10:19 UTC.
Position N 35°27' E 139°49'.

Length 87 m; draft 4.9 m.

Type: Cargo ship. MMSI: 431600499.

Date/timePositionNaut miles runAvg speedWind from/ knotsBaromVisibWave heightAir tempDewpointWater temp
2016-Aug-24 09:33N 35°27' E 139°49'1010.2
2016-Aug-24 08:33N 35°17' E 139°46'1110.6
2016-Aug-24 07:32N 35°06' E 139°44'242 9.3
2016-Aug-23 05:33N 34°03' E 135°00'1111.4
2016-Aug-23 04:33N 34°14' E 134°59'1010.2
2016-Aug-23 03:33N 34°24' E 135°00'1010.0
2016-Aug-23 02:33N 34°34' E 135°03'7 6.2
2016-Aug-23 01:26N 34°35' E 134°54'  
2016-Aug-19 09:08N 34°35' E 134°51'912.0
2016-Aug-19 08:23N 34°37' E 135°02'910.6
2016-Aug-19 07:33N 34°37' E 135°12'8 8.3
2016-Aug-19 06:33N 34°39' E 135°22'4 4.2
2016-Aug-19 05:33N 34°40' E 135°27'0 0.0
2016-Aug-19 04:29N 34°40' E 135°27'5 5.1
2016-Aug-19 03:33N 34°36' E 135°25'2 1.6
2016-Aug-19 02:33N 34°35' E 135°27'0 0.0
2016-Aug-19 01:32N 34°35' E 135°27'0 0.0
2016-Aug-19 00:33N 34°35' E 135°27'0 0.0
2016-Aug-18 23:33N 34°35' E 135°27'2 2.3
2016-Aug-18 22:33N 34°36' E 135°24'1 1.0
2016-Aug-18 21:33N 34°36' E 135°23'0 0.0
2016-Aug-18 20:33N 34°36' E 135°23'0 0.0
2016-Aug-18 19:33N 34°36' E 135°23'0 0.0
2016-Aug-18 18:33N 34°36' E 135°23'0 0.0
2016-Aug-18 17:33N 34°36' E 135°23'0 0.0
2016-Aug-18 16:33N 34°36' E 135°23'0 0.0
2016-Aug-18 15:33N 34°36' E 135°23'0 0.0
2016-Aug-18 14:33N 34°36' E 135°23'0 0.0
2016-Aug-18 13:33N 34°36' E 135°23'0 0.0
2016-Aug-18 12:33N 34°36' E 135°23'0 0.0
2016-Aug-18 11:33N 34°36' E 135°23'0 0.0
2016-Aug-18 10:33N 34°36' E 135°23'0 0.0
2016-Aug-18 09:33N 34°36' E 135°23'9 9.1
2016-Aug-18 08:33N 34°35' E 135°12'1211.6
2016-Aug-18 07:31N 34°36' E 134°58'  
2016-Aug-14 21:06N 34°37' E 134°54'611.6
2016-Aug-14 20:33N 34°37' E 135°02'10 9.6
2016-Aug-14 19:33N 34°28' E 135°03'1211.4
2016-Aug-14 18:30N 34°16' E 134°59'7 7.0
2016-Aug-14 17:33N 34°15' E 135°07'0 0.0
2016-Aug-14 16:34N 34°15' E 135°07'0 0.0
2016-Aug-14 15:33N 34°15' E 135°07'0 0.0
2016-Aug-14 14:34N 34°15' E 135°07'0 0.0
2016-Aug-14 13:33N 34°15' E 135°07'0 0.0
2016-Aug-14 12:33N 34°15' E 135°07'0 0.0
2016-Aug-14 11:34N 34°15' E 135°07'0 0.0
2016-Aug-14 10:33N 34°15' E 135°07'0 0.0
2016-Aug-14 09:34N 34°15' E 135°07'  

Dump ship's entire track history